sensor_id;sensor_type;location;lat;lon;timestamp;P1;durP1;ratioP1;P2;durP2;ratioP2
8183;SDS011;4133;48.752;9.088;2023-05-10T00:00:52;1.20;;;0.80;;
8183;SDS011;4133;48.752;9.088;2023-05-10T00:03:18;1.53;;;0.80;;
8183;SDS011;4133;48.752;9.088;2023-05-10T00:05:44;1.10;;;1.00;;
8183;SDS011;4133;48.752;9.088;2023-05-10T00:08:10;2.73;;;0.80;;
8183;SDS011;4133;48.752;9.088;2023-05-10T00:10:36;1.30;;;0.80;;
8183;SDS011;4133;48.752;9.088;2023-05-10T00:13:02;1.70;;;0.87;;
8183;SDS011;4133;48.752;9.088;2023-05-10T00:15:28;1.30;;;1.10;;
8183;SDS011;4133;48.752;9.088;2023-05-10T00:17:57;1.70;;;1.00;;
8183;SDS011;4133;48.752;9.088;2023-05-10T00:20:23;1.03;;;0.93;;
8183;SDS011;4133;48.752;9.088;2023-05-10T00:22:49;1.23;;;0.67;;
8183;SDS011;4133;48.752;9.088;2023-05-10T00:25:15;0.60;;;0.60;;
8183;SDS011;4133;48.752;9.088;2023-05-10T00:27:41;0.73;;;0.73;;
8183;SDS011;4133;48.752;9.088;2023-05-10T00:30:07;2.37;;;0.43;;
8183;SDS011;4133;48.752;9.088;2023-05-10T00:32:33;1.70;;;0.53;;
8183;SDS011;4133;48.752;9.088;2023-05-10T00:34:59;1.50;;;0.67;;
8183;SDS011;4133;48.752;9.088;2023-05-10T00:37:25;1.57;;;0.70;;
8183;SDS011;4133;48.752;9.088;2023-05-10T00:39:52;2.00;;;0.70;;
8183;SDS011;4133;48.752;9.088;2023-05-10T00:42:18;3.20;;;0.47;;
8183;SDS011;4133;48.752;9.088;2023-05-10T00:44:44;0.63;;;0.40;;
8183;SDS011;4133;48.752;9.088;2023-05-10T00:47:11;2.10;;;0.40;;
8183;SDS011;4133;48.752;9.088;2023-05-10T00:49:37;0.30;;;0.30;;
8183;SDS011;4133;48.752;9.088;2023-05-10T00:52:03;0.50;;;0.50;;
8183;SDS011;4133;48.752;9.088;2023-05-10T00:54:29;3.10;;;0.40;;
8183;SDS011;4133;48.752;9.088;2023-05-10T00:57:06;0.50;;;0.23;;
8183;SDS011;4133;48.752;9.088;2023-05-10T00:59:32;0.40;;;0.40;;
8183;SDS011;4133;48.752;9.088;2023-05-10T01:01:58;0.40;;;0.40;;
8183;SDS011;4133;48.752;9.088;2023-05-10T01:04:24;1.07;;;0.20;;
8183;SDS011;4133;48.752;9.088;2023-05-10T01:06:53;0.80;;;0.43;;
8183;SDS011;4133;48.752;9.088;2023-05-10T01:15:17;0.30;;;0.30;;
8183;SDS011;4133;48.752;9.088;2023-05-10T01:17:44;0.30;;;0.30;;
8183;SDS011;4133;48.752;9.088;2023-05-10T01:20:10;0.30;;;0.30;;
8183;SDS011;4133;48.752;9.088;2023-05-10T01:28:26;0.40;;;0.40;;
8183;SDS011;4133;48.752;9.088;2023-05-10T01:33:39;0.80;;;0.40;;
8183;SDS011;4133;48.752;9.088;2023-05-10T01:36:21;3.13;;;0.43;;
8183;SDS011;4133;48.752;9.088;2023-05-10T01:43:55;0.97;;;0.50;;
8183;SDS011;4133;48.752;9.088;2023-05-10T01:46:38;0.50;;;0.50;;
8183;SDS011;4133;48.752;9.088;2023-05-10T01:49:24;2.33;;;0.50;;
8183;SDS011;4133;48.752;9.088;2023-05-10T01:51:52;0.97;;;0.40;;
8183;SDS011;4133;48.752;9.088;2023-05-10T01:54:22;0.60;;;0.60;;
8183;SDS011;4133;48.752;9.088;2023-05-10T01:59:35;2.23;;;1.00;;
8183;SDS011;4133;48.752;9.088;2023-05-10T02:02:05;4.23;;;1.50;;
8183;SDS011;4133;48.752;9.088;2023-05-10T02:04:32;3.00;;;2.40;;
8183;SDS011;4133;48.752;9.088;2023-05-10T02:07:00;3.80;;;2.00;;
8183;SDS011;4133;48.752;9.088;2023-05-10T02:09:27;1.87;;;0.87;;
8183;SDS011;4133;48.752;9.088;2023-05-10T02:11:54;1.77;;;1.67;;
8183;SDS011;4133;48.752;9.088;2023-05-10T02:14:21;3.37;;;1.70;;
8183;SDS011;4133;48.752;9.088;2023-05-10T02:16:49;2.57;;;1.70;;
8183;SDS011;4133;48.752;9.088;2023-05-10T02:19:16;2.00;;;1.90;;
8183;SDS011;4133;48.752;9.088;2023-05-10T02:21:42;1.10;;;1.10;;
8183;SDS011;4133;48.752;9.088;2023-05-10T02:24:09;1.00;;;0.60;;
8183;SDS011;4133;48.752;9.088;2023-05-10T02:26:36;0.70;;;0.70;;
8183;SDS011;4133;48.752;9.088;2023-05-10T02:29:03;1.90;;;0.70;;
8183;SDS011;4133;48.752;9.088;2023-05-10T02:31:32;0.63;;;0.63;;
8183;SDS011;4133;48.752;9.088;2023-05-10T02:33:59;6.20;;;0.70;;
8183;SDS011;4133;48.752;9.088;2023-05-10T02:36:26;0.60;;;0.60;;
8183;SDS011;4133;48.752;9.088;2023-05-10T02:38:56;0.67;;;0.67;;
8183;SDS011;4133;48.752;9.088;2023-05-10T02:41:23;1.03;;;0.93;;
8183;SDS011;4133;48.752;9.088;2023-05-10T02:43:51;0.60;;;0.60;;
8183;SDS011;4133;48.752;9.088;2023-05-10T02:46:19;0.60;;;0.60;;
8183;SDS011;4133;48.752;9.088;2023-05-10T02:48:45;0.73;;;0.63;;
8183;SDS011;4133;48.752;9.088;2023-05-10T02:51:11;1.27;;;0.60;;
8183;SDS011;4133;48.752;9.088;2023-05-10T02:53:40;1.70;;;0.50;;
8183;SDS011;4133;48.752;9.088;2023-05-10T02:56:15;1.03;;;0.70;;
8183;SDS011;4133;48.752;9.088;2023-05-10T03:01:46;0.60;;;0.60;;
8183;SDS011;4133;48.752;9.088;2023-05-10T03:04:12;0.93;;;0.60;;
8183;SDS011;4133;48.752;9.088;2023-05-10T03:06:38;2.50;;;0.60;;
8183;SDS011;4133;48.752;9.088;2023-05-10T03:09:04;2.03;;;0.70;;
8183;SDS011;4133;48.752;9.088;2023-05-10T03:16:27;4.20;;;1.07;;
8183;SDS011;4133;48.752;9.088;2023-05-10T03:18:56;0.70;;;0.70;;
8183;SDS011;4133;48.752;9.088;2023-05-10T03:21:26;0.90;;;0.90;;
8183;SDS011;4133;48.752;9.088;2023-05-10T03:23:59;1.87;;;1.00;;
8183;SDS011;4133;48.752;9.088;2023-05-10T03:26:26;2.43;;;1.00;;
8183;SDS011;4133;48.752;9.088;2023-05-10T03:28:53;4.57;;;1.13;;
8183;SDS011;4133;48.752;9.088;2023-05-10T03:31:20;0.90;;;0.90;;
8183;SDS011;4133;48.752;9.088;2023-05-10T03:33:50;3.03;;;1.10;;
8183;SDS011;4133;48.752;9.088;2023-05-10T03:36:19;1.13;;;1.03;;
8183;SDS011;4133;48.752;9.088;2023-05-10T03:38:45;3.83;;;1.10;;
8183;SDS011;4133;48.752;9.088;2023-05-10T03:41:11;0.97;;;0.97;;
8183;SDS011;4133;48.752;9.088;2023-05-10T03:43:38;1.20;;;1.10;;
8183;SDS011;4133;48.752;9.088;2023-05-10T03:46:04;1.53;;;1.10;;
8183;SDS011;4133;48.752;9.088;2023-05-10T03:48:30;1.90;;;1.10;;
8183;SDS011;4133;48.752;9.088;2023-05-10T03:50:57;1.50;;;1.10;;
8183;SDS011;4133;48.752;9.088;2023-05-10T03:53:23;1.40;;;1.30;;
8183;SDS011;4133;48.752;9.088;2023-05-10T03:55:49;5.57;;;1.23;;
8183;SDS011;4133;48.752;9.088;2023-05-10T03:58:23;3.07;;;1.40;;
8183;SDS011;4133;48.752;9.088;2023-05-10T04:00:50;2.17;;;1.33;;
8183;SDS011;4133;48.752;9.088;2023-05-10T04:03:16;1.33;;;1.30;;
8183;SDS011;4133;48.752;9.088;2023-05-10T04:05:42;2.00;;;1.30;;
8183;SDS011;4133;48.752;9.088;2023-05-10T04:08:08;1.37;;;1.20;;
8183;SDS011;4133;48.752;9.088;2023-05-10T04:10:34;2.87;;;1.23;;
8183;SDS011;4133;48.752;9.088;2023-05-10T04:13:00;1.50;;;1.40;;
8183;SDS011;4133;48.752;9.088;2023-05-10T04:15:26;3.73;;;1.60;;
8183;SDS011;4133;48.752;9.088;2023-05-10T04:17:52;1.63;;;1.30;;
8183;SDS011;4133;48.752;9.088;2023-05-10T04:20:18;1.47;;;1.37;;
8183;SDS011;4133;48.752;9.088;2023-05-10T04:22:44;1.60;;;1.50;;
8183;SDS011;4133;48.752;9.088;2023-05-10T04:25:10;7.50;;;1.80;;
8183;SDS011;4133;48.752;9.088;2023-05-10T04:27:36;3.97;;;1.47;;
8183;SDS011;4133;48.752;9.088;2023-05-10T04:30:02;2.30;;;1.33;;
8183;SDS011;4133;48.752;9.088;2023-05-10T04:32:28;2.63;;;1.50;;
8183;SDS011;4133;48.752;9.088;2023-05-10T04:34:55;2.67;;;1.63;;
8183;SDS011;4133;48.752;9.088;2023-05-10T04:37:21;1.83;;;1.37;;
8183;SDS011;4133;48.752;9.088;2023-05-10T04:39:47;1.40;;;1.30;;
8183;SDS011;4133;48.752;9.088;2023-05-10T04:42:13;5.27;;;1.47;;
8183;SDS011;4133;48.752;9.088;2023-05-10T04:44:40;2.37;;;1.30;;
8183;SDS011;4133;48.752;9.088;2023-05-10T04:47:06;1.83;;;1.40;;
8183;SDS011;4133;48.752;9.088;2023-05-10T04:49:32;1.27;;;1.10;;
8183;SDS011;4133;48.752;9.088;2023-05-10T04:51:58;6.33;;;1.30;;
8183;SDS011;4133;48.752;9.088;2023-05-10T04:54:24;1.10;;;1.10;;
8183;SDS011;4133;48.752;9.088;2023-05-10T04:57:09;1.00;;;1.00;;
8183;SDS011;4133;48.752;9.088;2023-05-10T04:59:35;1.30;;;1.20;;
8183;SDS011;4133;48.752;9.088;2023-05-10T05:02:02;2.60;;;1.20;;
8183;SDS011;4133;48.752;9.088;2023-05-10T05:04:29;2.70;;;1.20;;
8183;SDS011;4133;48.752;9.088;2023-05-10T05:06:56;1.40;;;1.30;;
8183;SDS011;4133;48.752;9.088;2023-05-10T05:09:22;1.60;;;1.30;;
8183;SDS011;4133;48.752;9.088;2023-05-10T05:11:48;2.60;;;1.23;;
8183;SDS011;4133;48.752;9.088;2023-05-10T05:14:14;1.30;;;1.20;;
8183;SDS011;4133;48.752;9.088;2023-05-10T05:16:40;1.53;;;1.23;;
8183;SDS011;4133;48.752;9.088;2023-05-10T05:19:05;1.20;;;1.10;;
8183;SDS011;4133;48.752;9.088;2023-05-10T05:21:31;3.03;;;1.30;;
8183;SDS011;4133;48.752;9.088;2023-05-10T05:23:57;1.30;;;1.20;;
8183;SDS011;4133;48.752;9.088;2023-05-10T05:26:23;1.33;;;1.23;;
8183;SDS011;4133;48.752;9.088;2023-05-10T05:28:49;1.27;;;1.10;;
8183;SDS011;4133;48.752;9.088;2023-05-10T05:31:18;1.20;;;1.10;;
8183;SDS011;4133;48.752;9.088;2023-05-10T05:33:44;1.50;;;1.17;;
8183;SDS011;4133;48.752;9.088;2023-05-10T05:36:10;1.67;;;1.20;;
8183;SDS011;4133;48.752;9.088;2023-05-10T05:38:36;1.43;;;1.20;;
8183;SDS011;4133;48.752;9.088;2023-05-10T05:41:02;1.83;;;1.10;;
8183;SDS011;4133;48.752;9.088;2023-05-10T05:43:28;1.70;;;1.13;;
8183;SDS011;4133;48.752;9.088;2023-05-10T05:45:55;1.23;;;1.13;;
8183;SDS011;4133;48.752;9.088;2023-05-10T05:48:22;1.40;;;1.30;;
8183;SDS011;4133;48.752;9.088;2023-05-10T05:50:48;4.00;;;1.30;;
8183;SDS011;4133;48.752;9.088;2023-05-10T05:53:15;1.10;;;1.00;;
8183;SDS011;4133;48.752;9.088;2023-05-10T05:55:50;1.57;;;1.37;;
8183;SDS011;4133;48.752;9.088;2023-05-10T05:58:24;3.93;;;1.20;;
8183;SDS011;4133;48.752;9.088;2023-05-10T06:00:50;1.83;;;1.10;;
8183;SDS011;4133;48.752;9.088;2023-05-10T06:03:17;1.50;;;1.40;;
8183;SDS011;4133;48.752;9.088;2023-05-10T06:05:43;4.57;;;1.30;;
8183;SDS011;4133;48.752;9.088;2023-05-10T06:08:09;3.33;;;1.43;;
8183;SDS011;4133;48.752;9.088;2023-05-10T06:10:35;1.70;;;1.60;;
8183;SDS011;4133;48.752;9.088;2023-05-10T06:13:01;5.00;;;1.40;;
8183;SDS011;4133;48.752;9.088;2023-05-10T06:15:27;1.33;;;1.23;;
8183;SDS011;4133;48.752;9.088;2023-05-10T06:17:53;1.60;;;1.50;;
8183;SDS011;4133;48.752;9.088;2023-05-10T06:20:19;3.80;;;1.43;;
8183;SDS011;4133;48.752;9.088;2023-05-10T06:22:45;1.50;;;1.40;;
8183;SDS011;4133;48.752;9.088;2023-05-10T06:25:11;2.60;;;1.53;;
8183;SDS011;4133;48.752;9.088;2023-05-10T06:27:39;2.60;;;1.53;;
8183;SDS011;4133;48.752;9.088;2023-05-10T06:30:05;3.03;;;1.60;;
8183;SDS011;4133;48.752;9.088;2023-05-10T06:32:31;3.33;;;1.40;;
8183;SDS011;4133;48.752;9.088;2023-05-10T06:34:57;2.70;;;1.60;;
8183;SDS011;4133;48.752;9.088;2023-05-10T06:37:23;3.03;;;1.43;;
8183;SDS011;4133;48.752;9.088;2023-05-10T06:39:49;2.97;;;1.93;;
8183;SDS011;4133;48.752;9.088;2023-05-10T06:42:15;4.00;;;2.70;;
8183;SDS011;4133;48.752;9.088;2023-05-10T06:44:41;3.30;;;2.07;;
8183;SDS011;4133;48.752;9.088;2023-05-10T06:47:08;3.60;;;2.30;;
8183;SDS011;4133;48.752;9.088;2023-05-10T06:49:34;1.67;;;1.57;;
8183;SDS011;4133;48.752;9.088;2023-05-10T06:52:00;3.87;;;1.60;;
8183;SDS011;4133;48.752;9.088;2023-05-10T06:54:26;1.97;;;1.47;;
8183;SDS011;4133;48.752;9.088;2023-05-10T06:56:52;2.07;;;1.40;;
8183;SDS011;4133;48.752;9.088;2023-05-10T06:59:18;1.60;;;1.50;;
8183;SDS011;4133;48.752;9.088;2023-05-10T07:01:46;1.40;;;1.20;;
8183;SDS011;4133;48.752;9.088;2023-05-10T07:04:12;1.93;;;1.40;;
8183;SDS011;4133;48.752;9.088;2023-05-10T07:06:38;1.83;;;1.40;;
8183;SDS011;4133;48.752;9.088;2023-05-10T07:09:04;1.63;;;1.47;;
8183;SDS011;4133;48.752;9.088;2023-05-10T07:11:30;2.57;;;1.30;;
8183;SDS011;4133;48.752;9.088;2023-05-10T07:13:56;3.93;;;1.40;;
8183;SDS011;4133;48.752;9.088;2023-05-10T07:16:22;2.70;;;1.40;;
8183;SDS011;4133;48.752;9.088;2023-05-10T07:18:48;3.50;;;1.70;;
8183;SDS011;4133;48.752;9.088;2023-05-10T07:21:15;1.93;;;1.63;;
8183;SDS011;4133;48.752;9.088;2023-05-10T07:23:41;2.42;;;1.58;;
8183;SDS011;4133;48.752;9.088;2023-05-10T07:26:07;2.27;;;1.30;;
8183;SDS011;4133;48.752;9.088;2023-05-10T07:28:34;1.00;;;0.90;;
8183;SDS011;4133;48.752;9.088;2023-05-10T07:31:02;2.67;;;1.30;;
8183;SDS011;4133;48.752;9.088;2023-05-10T07:33:28;1.40;;;1.10;;
8183;SDS011;4133;48.752;9.088;2023-05-10T07:35:54;1.00;;;1.00;;
8183;SDS011;4133;48.752;9.088;2023-05-10T07:38:20;1.40;;;1.00;;
8183;SDS011;4133;48.752;9.088;2023-05-10T07:40:46;1.40;;;1.13;;
8183;SDS011;4133;48.752;9.088;2023-05-10T07:43:12;2.50;;;1.10;;
8183;SDS011;4133;48.752;9.088;2023-05-10T07:45:38;3.95;;;0.88;;
8183;SDS011;4133;48.752;9.088;2023-05-10T07:48:04;1.13;;;0.90;;
8183;SDS011;4133;48.752;9.088;2023-05-10T07:50:30;0.80;;;0.80;;
8183;SDS011;4133;48.752;9.088;2023-05-10T07:52:56;1.52;;;0.90;;
8183;SDS011;4133;48.752;9.088;2023-05-10T07:55:22;2.15;;;0.90;;
8183;SDS011;4133;48.752;9.088;2023-05-10T07:57:55;1.80;;;0.87;;
8183;SDS011;4133;48.752;9.088;2023-05-10T08:00:21;1.13;;;0.70;;
8183;SDS011;4133;48.752;9.088;2023-05-10T08:02:47;0.90;;;0.80;;
8183;SDS011;4133;48.752;9.088;2023-05-10T08:05:13;0.80;;;0.80;;
8183;SDS011;4133;48.752;9.088;2023-05-10T08:07:40;1.20;;;0.70;;
8183;SDS011;4133;48.752;9.088;2023-05-10T08:10:06;1.87;;;0.67;;
8183;SDS011;4133;48.752;9.088;2023-05-10T08:12:32;1.87;;;0.83;;
8183;SDS011;4133;48.752;9.088;2023-05-10T08:14:58;2.35;;;0.75;;
8183;SDS011;4133;48.752;9.088;2023-05-10T08:17:24;1.60;;;0.85;;
8183;SDS011;4133;48.752;9.088;2023-05-10T08:19:50;0.93;;;0.80;;
8183;SDS011;4133;48.752;9.088;2023-05-10T08:22:16;0.68;;;0.63;;
8183;SDS011;4133;48.752;9.088;2023-05-10T08:24:42;0.50;;;0.50;;
8183;SDS011;4133;48.752;9.088;2023-05-10T08:27:08;1.93;;;0.73;;
8183;SDS011;4133;48.752;9.088;2023-05-10T08:29:34;1.42;;;0.93;;
8183;SDS011;4133;48.752;9.088;2023-05-10T08:32:00;1.00;;;0.90;;
8183;SDS011;4133;48.752;9.088;2023-05-10T08:34:26;1.90;;;1.53;;
8183;SDS011;4133;48.752;9.088;2023-05-10T08:36:52;1.40;;;1.10;;
8183;SDS011;4133;48.752;9.088;2023-05-10T08:39:18;0.50;;;0.50;;
8183;SDS011;4133;48.752;9.088;2023-05-10T08:41:45;0.60;;;0.60;;
8183;SDS011;4133;48.752;9.088;2023-05-10T08:44:12;0.40;;;0.40;;
8183;SDS011;4133;48.752;9.088;2023-05-10T08:46:38;0.90;;;0.60;;
8183;SDS011;4133;48.752;9.088;2023-05-10T08:49:08;0.55;;;0.55;;
8183;SDS011;4133;48.752;9.088;2023-05-10T08:51:37;2.00;;;0.60;;
8183;SDS011;4133;48.752;9.088;2023-05-10T08:54:04;0.60;;;0.60;;
8183;SDS011;4133;48.752;9.088;2023-05-10T08:56:31;0.77;;;0.60;;
8183;SDS011;4133;48.752;9.088;2023-05-10T09:01:43;1.17;;;0.60;;
8183;SDS011;4133;48.752;9.088;2023-05-10T09:04:10;0.50;;;0.50;;
8183;SDS011;4133;48.752;9.088;2023-05-10T09:06:37;0.97;;;0.50;;
8183;SDS011;4133;48.752;9.088;2023-05-10T09:09:03;3.53;;;0.60;;
8183;SDS011;4133;48.752;9.088;2023-05-10T09:11:29;1.10;;;0.50;;
8183;SDS011;4133;48.752;9.088;2023-05-10T09:13:56;0.83;;;0.60;;
8183;SDS011;4133;48.752;9.088;2023-05-10T09:16:23;0.50;;;0.50;;
8183;SDS011;4133;48.752;9.088;2023-05-10T09:18:49;0.77;;;0.63;;
8183;SDS011;4133;48.752;9.088;2023-05-10T09:21:15;0.60;;;0.60;;
8183;SDS011;4133;48.752;9.088;2023-05-10T09:23:44;0.80;;;0.50;;
8183;SDS011;4133;48.752;9.088;2023-05-10T09:26:11;1.27;;;0.60;;
8183;SDS011;4133;48.752;9.088;2023-05-10T09:28:59;1.50;;;0.50;;
8183;SDS011;4133;48.752;9.088;2023-05-10T09:31:45;1.23;;;0.60;;
8183;SDS011;4133;48.752;9.088;2023-05-10T09:34:15;2.10;;;0.60;;
8183;SDS011;4133;48.752;9.088;2023-05-10T09:36:51;0.63;;;0.50;;
8183;SDS011;4133;48.752;9.088;2023-05-10T09:39:17;0.73;;;0.50;;
8183;SDS011;4133;48.752;9.088;2023-05-10T09:41:43;0.50;;;0.50;;
8183;SDS011;4133;48.752;9.088;2023-05-10T09:44:09;1.90;;;0.57;;
8183;SDS011;4133;48.752;9.088;2023-05-10T09:46:35;0.63;;;0.53;;
8183;SDS011;4133;48.752;9.088;2023-05-10T09:49:02;0.95;;;0.47;;
8183;SDS011;4133;48.752;9.088;2023-05-10T09:51:28;0.50;;;0.50;;
8183;SDS011;4133;48.752;9.088;2023-05-10T09:56:35;0.35;;;0.30;;
8183;SDS011;4133;48.752;9.088;2023-05-10T09:59:04;1.70;;;0.40;;
8183;SDS011;4133;48.752;9.088;2023-05-10T10:01:30;1.70;;;0.40;;
8183;SDS011;4133;48.752;9.088;2023-05-10T10:03:56;1.60;;;0.50;;
8183;SDS011;4133;48.752;9.088;2023-05-10T10:06:23;1.48;;;0.50;;
8183;SDS011;4133;48.752;9.088;2023-05-10T10:08:49;0.30;;;0.30;;
8183;SDS011;4133;48.752;9.088;2023-05-10T10:11:16;0.40;;;0.40;;
8183;SDS011;4133;48.752;9.088;2023-05-10T10:13:42;0.60;;;0.50;;
8183;SDS011;4133;48.752;9.088;2023-05-10T10:16:08;2.58;;;0.45;;
8183;SDS011;4133;48.752;9.088;2023-05-10T10:18:35;1.90;;;0.50;;
8183;SDS011;4133;48.752;9.088;2023-05-10T10:21:05;0.63;;;0.50;;
8183;SDS011;4133;48.752;9.088;2023-05-10T10:23:32;0.80;;;0.40;;
8183;SDS011;4133;48.752;9.088;2023-05-10T10:25:58;1.17;;;0.40;;
8183;SDS011;4133;48.752;9.088;2023-05-10T10:30:57;1.40;;;0.43;;
8183;SDS011;4133;48.752;9.088;2023-05-10T10:33:33;0.45;;;0.45;;
8183;SDS011;4133;48.752;9.088;2023-05-10T10:36:02;1.43;;;0.40;;
8183;SDS011;4133;48.752;9.088;2023-05-10T10:39:07;0.93;;;0.40;;
8183;SDS011;4133;48.752;9.088;2023-05-10T10:41:32;0.57;;;0.40;;
8183;SDS011;4133;48.752;9.088;2023-05-10T10:47:04;1.50;;;0.80;;
8183;SDS011;4133;48.752;9.088;2023-05-10T10:52:39;2.07;;;0.50;;
8183;SDS011;4133;48.752;9.088;2023-05-10T10:55:12;2.23;;;0.53;;
8183;SDS011;4133;48.752;9.088;2023-05-10T11:00:42;0.67;;;0.60;;
8183;SDS011;4133;48.752;9.088;2023-05-10T11:03:10;1.60;;;0.50;;
8183;SDS011;4133;48.752;9.088;2023-05-10T11:10:48;2.10;;;0.93;;
8183;SDS011;4133;48.752;9.088;2023-05-10T11:13:16;0.93;;;0.40;;
8183;SDS011;4133;48.752;9.088;2023-05-10T11:15:52;0.90;;;0.50;;
8183;SDS011;4133;48.752;9.088;2023-05-10T11:18:31;0.70;;;0.70;;
8183;SDS011;4133;48.752;9.088;2023-05-10T11:20:58;0.37;;;0.37;;
8183;SDS011;4133;48.752;9.088;2023-05-10T11:23:29;1.87;;;0.67;;
8183;SDS011;4133;48.752;9.088;2023-05-10T11:25:55;2.37;;;0.53;;
8183;SDS011;4133;48.752;9.088;2023-05-10T11:28:21;1.07;;;0.40;;
8183;SDS011;4133;48.752;9.088;2023-05-10T11:30:47;0.40;;;0.40;;
8183;SDS011;4133;48.752;9.088;2023-05-10T11:33:17;1.57;;;0.60;;
8183;SDS011;4133;48.752;9.088;2023-05-10T11:35:44;1.23;;;0.70;;
8183;SDS011;4133;48.752;9.088;2023-05-10T11:38:10;0.53;;;0.53;;
8183;SDS011;4133;48.752;9.088;2023-05-10T11:40:37;0.70;;;0.57;;
8183;SDS011;4133;48.752;9.088;2023-05-10T11:43:03;0.50;;;0.50;;
8183;SDS011;4133;48.752;9.088;2023-05-10T11:45:34;0.60;;;0.60;;
8183;SDS011;4133;48.752;9.088;2023-05-10T11:48:00;2.87;;;0.90;;
8183;SDS011;4133;48.752;9.088;2023-05-10T11:50:26;1.77;;;0.50;;
8183;SDS011;4133;48.752;9.088;2023-05-10T11:52:53;1.50;;;0.70;;
8183;SDS011;4133;48.752;9.088;2023-05-10T11:55:19;0.73;;;0.70;;
8183;SDS011;4133;48.752;9.088;2023-05-10T11:57:47;1.27;;;0.70;;
8183;SDS011;4133;48.752;9.088;2023-05-10T12:00:13;1.20;;;0.65;;
8183;SDS011;4133;48.752;9.088;2023-05-10T12:02:40;0.70;;;0.70;;
8183;SDS011;4133;48.752;9.088;2023-05-10T12:05:08;1.07;;;0.67;;
8183;SDS011;4133;48.752;9.088;2023-05-10T12:07:35;0.83;;;0.70;;
8183;SDS011;4133;48.752;9.088;2023-05-10T12:12:37;0.60;;;0.60;;
8183;SDS011;4133;48.752;9.088;2023-05-10T12:15:03;1.00;;;0.70;;
8183;SDS011;4133;48.752;9.088;2023-05-10T12:17:29;3.47;;;0.63;;
8183;SDS011;4133;48.752;9.088;2023-05-10T12:19:58;0.77;;;0.77;;
8183;SDS011;4133;48.752;9.088;2023-05-10T12:22:25;2.85;;;0.77;;
8183;SDS011;4133;48.752;9.088;2023-05-10T12:24:51;4.32;;;0.88;;
8183;SDS011;4133;48.752;9.088;2023-05-10T12:27:17;0.90;;;0.90;;
8183;SDS011;4133;48.752;9.088;2023-05-10T12:29:43;3.10;;;0.80;;
8183;SDS011;4133;48.752;9.088;2023-05-10T12:32:09;3.60;;;0.90;;
8183;SDS011;4133;48.752;9.088;2023-05-10T12:34:35;1.48;;;0.80;;
8183;SDS011;4133;48.752;9.088;2023-05-10T12:37:03;1.20;;;0.70;;
8183;SDS011;4133;48.752;9.088;2023-05-10T12:39:42;1.50;;;0.77;;
8183;SDS011;4133;48.752;9.088;2023-05-10T12:42:08;1.80;;;0.70;;
8183;SDS011;4133;48.752;9.088;2023-05-10T12:44:35;1.77;;;0.80;;
8183;SDS011;4133;48.752;9.088;2023-05-10T12:47:01;0.90;;;0.73;;
8183;SDS011;4133;48.752;9.088;2023-05-10T12:49:27;1.70;;;0.80;;
8183;SDS011;4133;48.752;9.088;2023-05-10T12:51:52;4.73;;;0.97;;
8183;SDS011;4133;48.752;9.088;2023-05-10T12:54:18;1.50;;;0.83;;
8183;SDS011;4133;48.752;9.088;2023-05-10T12:59:48;2.10;;;0.93;;
8183;SDS011;4133;48.752;9.088;2023-05-10T13:02:15;0.77;;;0.77;;
8183;SDS011;4133;48.752;9.088;2023-05-10T13:04:43;3.27;;;0.80;;
8183;SDS011;4133;48.752;9.088;2023-05-10T13:07:09;1.37;;;0.90;;
8183;SDS011;4133;48.752;9.088;2023-05-10T13:09:35;1.33;;;0.63;;
8183;SDS011;4133;48.752;9.088;2023-05-10T13:12:01;1.23;;;0.80;;
8183;SDS011;4133;48.752;9.088;2023-05-10T13:14:27;3.63;;;0.80;;
8183;SDS011;4133;48.752;9.088;2023-05-10T13:16:53;0.63;;;0.60;;
8183;SDS011;4133;48.752;9.088;2023-05-10T13:19:20;2.13;;;0.80;;
8183;SDS011;4133;48.752;9.088;2023-05-10T13:21:46;2.10;;;0.70;;
8183;SDS011;4133;48.752;9.088;2023-05-10T13:24:12;1.47;;;0.80;;
8183;SDS011;4133;48.752;9.088;2023-05-10T13:26:39;2.67;;;0.80;;
8183;SDS011;4133;48.752;9.088;2023-05-10T13:29:05;2.83;;;0.70;;
8183;SDS011;4133;48.752;9.088;2023-05-10T13:31:31;1.02;;;0.70;;
8183;SDS011;4133;48.752;9.088;2023-05-10T13:33:57;2.13;;;0.80;;
8183;SDS011;4133;48.752;9.088;2023-05-10T13:36:23;0.90;;;0.80;;
8183;SDS011;4133;48.752;9.088;2023-05-10T13:38:49;2.67;;;0.90;;
8183;SDS011;4133;48.752;9.088;2023-05-10T13:41:15;3.37;;;0.97;;
8183;SDS011;4133;48.752;9.088;2023-05-10T13:43:41;1.80;;;0.80;;
8183;SDS011;4133;48.752;9.088;2023-05-10T13:46:07;1.83;;;0.90;;
8183;SDS011;4133;48.752;9.088;2023-05-10T13:48:33;1.67;;;0.60;;
8183;SDS011;4133;48.752;9.088;2023-05-10T13:50:59;2.57;;;0.87;;
8183;SDS011;4133;48.752;9.088;2023-05-10T13:53:25;2.10;;;0.90;;
8183;SDS011;4133;48.752;9.088;2023-05-10T13:55:51;0.85;;;0.60;;
8183;SDS011;4133;48.752;9.088;2023-05-10T14:01:06;1.70;;;0.60;;
8183;SDS011;4133;48.752;9.088;2023-05-10T14:03:32;0.88;;;0.60;;
8183;SDS011;4133;48.752;9.088;2023-05-10T14:05:58;4.30;;;1.20;;
8183;SDS011;4133;48.752;9.088;2023-05-10T14:08:24;0.95;;;0.52;;
8183;SDS011;4133;48.752;9.088;2023-05-10T14:10:52;1.20;;;0.50;;
8183;SDS011;4133;48.752;9.088;2023-05-10T14:13:18;0.80;;;0.60;;
8183;SDS011;4133;48.752;9.088;2023-05-10T14:15:43;4.95;;;0.60;;
8183;SDS011;4133;48.752;9.088;2023-05-10T14:18:09;2.35;;;0.60;;
8183;SDS011;4133;48.752;9.088;2023-05-10T14:20:36;1.00;;;0.52;;
8183;SDS011;4133;48.752;9.088;2023-05-10T14:23:02;2.38;;;0.60;;
8183;SDS011;4133;48.752;9.088;2023-05-10T14:25:28;2.45;;;0.80;;
8183;SDS011;4133;48.752;9.088;2023-05-10T14:27:54;1.17;;;0.77;;
8183;SDS011;4133;48.752;9.088;2023-05-10T14:30:20;2.63;;;0.90;;
8183;SDS011;4133;48.752;9.088;2023-05-10T14:32:46;2.77;;;0.60;;
8183;SDS011;4133;48.752;9.088;2023-05-10T14:35:12;1.15;;;0.70;;
8183;SDS011;4133;48.752;9.088;2023-05-10T14:37:38;0.45;;;0.45;;
8183;SDS011;4133;48.752;9.088;2023-05-10T14:40:05;1.35;;;0.73;;
8183;SDS011;4133;48.752;9.088;2023-05-10T14:42:32;2.53;;;0.50;;
8183;SDS011;4133;48.752;9.088;2023-05-10T14:44:58;2.92;;;0.65;;
8183;SDS011;4133;48.752;9.088;2023-05-10T14:47:24;0.60;;;0.35;;
8183;SDS011;4133;48.752;9.088;2023-05-10T14:49:50;1.60;;;0.70;;
8183;SDS011;4133;48.752;9.088;2023-05-10T14:52:16;0.97;;;0.60;;
8183;SDS011;4133;48.752;9.088;2023-05-10T14:54:42;2.10;;;0.50;;
8183;SDS011;4133;48.752;9.088;2023-05-10T14:57:09;1.63;;;0.80;;
8183;SDS011;4133;48.752;9.088;2023-05-10T14:59:35;0.53;;;0.50;;
8183;SDS011;4133;48.752;9.088;2023-05-10T15:02:01;1.50;;;0.60;;
8183;SDS011;4133;48.752;9.088;2023-05-10T15:04:28;0.63;;;0.50;;
8183;SDS011;4133;48.752;9.088;2023-05-10T15:06:54;0.87;;;0.60;;
8183;SDS011;4133;48.752;9.088;2023-05-10T15:09:24;5.28;;;0.63;;
8183;SDS011;4133;48.752;9.088;2023-05-10T15:11:50;2.20;;;0.57;;
8183;SDS011;4133;48.752;9.088;2023-05-10T15:14:16;1.10;;;0.70;;
8183;SDS011;4133;48.752;9.088;2023-05-10T15:16:42;2.20;;;0.70;;
8183;SDS011;4133;48.752;9.088;2023-05-10T15:19:08;1.10;;;0.68;;
8183;SDS011;4133;48.752;9.088;2023-05-10T15:21:34;1.02;;;0.73;;
8183;SDS011;4133;48.752;9.088;2023-05-10T15:24:04;0.50;;;0.50;;
8183;SDS011;4133;48.752;9.088;2023-05-10T15:26:30;1.55;;;0.88;;
8183;SDS011;4133;48.752;9.088;2023-05-10T15:28:56;1.38;;;0.63;;
8183;SDS011;4133;48.752;9.088;2023-05-10T15:31:22;1.70;;;0.63;;
8183;SDS011;4133;48.752;9.088;2023-05-10T15:33:48;0.60;;;0.60;;
8183;SDS011;4133;48.752;9.088;2023-05-10T15:36:14;2.72;;;0.70;;
8183;SDS011;4133;48.752;9.088;2023-05-10T15:38:40;1.20;;;0.60;;
8183;SDS011;4133;48.752;9.088;2023-05-10T15:41:06;1.80;;;0.60;;
8183;SDS011;4133;48.752;9.088;2023-05-10T15:43:32;1.60;;;0.45;;
8183;SDS011;4133;48.752;9.088;2023-05-10T15:45:58;0.80;;;0.50;;
8183;SDS011;4133;48.752;9.088;2023-05-10T15:48:24;1.27;;;0.50;;
8183;SDS011;4133;48.752;9.088;2023-05-10T15:50:50;0.32;;;0.32;;
8183;SDS011;4133;48.752;9.088;2023-05-10T15:53:16;0.70;;;0.35;;
8183;SDS011;4133;48.752;9.088;2023-05-10T15:55:42;1.10;;;0.38;;
8183;SDS011;4133;48.752;9.088;2023-05-10T16:00:54;0.55;;;0.38;;
8183;SDS011;4133;48.752;9.088;2023-05-10T16:03:20;0.40;;;0.40;;
8183;SDS011;4133;48.752;9.088;2023-05-10T16:05:46;2.50;;;0.57;;
8183;SDS011;4133;48.752;9.088;2023-05-10T16:08:12;0.85;;;0.50;;
8183;SDS011;4133;48.752;9.088;2023-05-10T16:10:38;0.52;;;0.50;;
8183;SDS011;4133;48.752;9.088;2023-05-10T16:13:04;1.08;;;0.60;;
8183;SDS011;4133;48.752;9.088;2023-05-10T16:15:30;0.60;;;0.30;;
8183;SDS011;4133;48.752;9.088;2023-05-10T16:17:56;0.38;;;0.38;;